createdAt,value
2022-08-09T00:02:13.180Z,65.22
2022-08-09T00:06:19.204Z,65.59
2022-08-09T00:08:31.510Z,64.74
2022-08-09T00:11:24.950Z,62.54
2022-08-09T00:14:17.271Z,61.35
2022-08-09T00:17:10.196Z,58.64
2022-08-09T00:20:18.343Z,58.12
2022-08-09T00:23:08.359Z,60.28
2022-08-09T00:26:14.846Z,62.71
2022-08-09T00:29:03.776Z,64.42
2022-08-09T00:32:01.123Z,63.62
2022-08-09T00:34:52.212Z,62.40
2022-08-09T00:37:40.544Z,60.92
2022-08-09T00:40:31.201Z,58.42
2022-08-09T00:44:15.310Z,57.98
2022-08-09T00:46:57.782Z,59.43
2022-08-09T00:49:38.492Z,62.88
2022-08-09T00:52:31.173Z,64.35
2022-08-09T00:56:04.206Z,63.71
2022-08-09T00:58:36.119Z,62.64
2022-08-09T01:01:44.737Z,61.47
2022-08-09T01:05:13.990Z,58.60
2022-08-09T01:08:51.447Z,58.05
2022-08-09T01:11:55.752Z,58.98
2022-08-09T01:15:06.006Z,63.21
2022-08-09T01:18:10.517Z,65.18
2022-08-09T01:22:05.528Z,64.33
2022-08-09T01:25:28.135Z,62.37
2022-08-09T01:28:17.139Z,61.34
2022-08-09T01:31:11.859Z,58.26
2022-08-09T01:34:22.894Z,57.46
2022-08-09T01:37:15.359Z,59.87
2022-08-09T01:40:12.176Z,63.24
2022-08-09T01:43:12.698Z,64.38
2022-08-09T01:46:01.903Z,63.61
2022-08-09T01:48:53.256Z,62.15
2022-08-09T01:51:54.427Z,61.06
2022-08-09T01:54:49.298Z,60.77
2022-08-09T01:57:46.241Z,58.35
2022-08-09T02:00:46.208Z,57.19
2022-08-09T02:03:43.041Z,59.29
2022-08-09T02:06:58.397Z,62.89
2022-08-09T02:10:01.192Z,65.53
2022-08-09T02:12:56.256Z,63.92
2022-08-09T02:15:50.705Z,62.48
2022-08-09T02:18:42.731Z,61.64
2022-08-09T02:21:39.524Z,61.01
2022-08-09T02:24:37.971Z,60.33
2022-08-09T02:27:57.967Z,58.13
2022-08-09T02:30:53.026Z,57.24
2022-08-09T02:34:06.480Z,58.63
2022-08-09T02:36:59.435Z,63.90
2022-08-09T02:40:01.775Z,65.42
2022-08-09T02:42:53.819Z,63.52
2022-08-09T02:45:45.431Z,61.72
2022-08-09T02:48:39.418Z,61.72
2022-08-09T02:51:42.979Z,61.17
2022-08-09T02:54:33.429Z,60.47
2022-08-09T02:57:25.506Z,58.43
2022-08-09T03:00:25.397Z,57.39
2022-08-09T03:03:21.352Z,58.80
2022-08-09T03:06:14.780Z,62.80
2022-08-09T03:09:04.287Z,65.48
2022-08-09T03:12:10.506Z,64.33
2022-08-09T03:15:00.843Z,63.12
2022-08-09T03:17:57.886Z,61.83
2022-08-09T03:20:48.714Z,60.78
2022-08-09T03:23:38.367Z,58.40
2022-08-09T03:26:30.883Z,57.59
2022-08-09T03:29:22.733Z,59.64
2022-08-09T03:32:12.537Z,63.05
2022-08-09T03:35:01.086Z,65.27
2022-08-09T03:37:56.127Z,64.04
2022-08-09T03:40:46.571Z,62.73
2022-08-09T03:43:34.566Z,61.76
2022-08-09T03:46:27.484Z,60.93
2022-08-09T03:49:19.185Z,58.82
2022-08-09T03:52:11.330Z,57.93
2022-08-09T03:55:03.918Z,59.71
2022-08-09T03:58:06.621Z,63.39
2022-08-09T04:01:04.446Z,65.25
2022-08-09T04:04:02.308Z,63.82
2022-08-09T04:06:53.031Z,63.14
2022-08-09T04:09:44.432Z,62.16
2022-08-09T04:12:50.821Z,61.25
2022-08-09T04:16:17.823Z,60.88
2022-08-09T04:18:47.759Z,58.57
2022-08-09T04:21:40.097Z,58.69
2022-08-09T04:24:30.292Z,60.06
2022-08-09T04:27:22.269Z,63.27
2022-08-09T04:30:16.884Z,65.23
2022-08-09T04:33:04.846Z,63.65
2022-08-09T04:35:56.014Z,62.24
2022-08-09T04:38:44.479Z,60.94
2022-08-09T04:41:33.906Z,58.55
2022-08-09T04:44:31.867Z,57.45
2022-08-09T04:47:22.836Z,59.62
2022-08-09T04:50:10.976Z,63.03
2022-08-09T04:52:59.428Z,64.31
2022-08-09T04:55:58.883Z,62.32
2022-08-09T04:58:48.553Z,60.75
2022-08-09T05:01:39.051Z,57.61
2022-08-09T05:04:30.734Z,57.24
2022-08-09T05:07:20.168Z,58.13
2022-08-09T05:10:09.321Z,59.88
2022-08-09T05:12:58.025Z,62.81
2022-08-09T05:15:52.306Z,63.99
2022-08-09T05:18:58.813Z,61.17
2022-08-09T05:21:55.304Z,58.08
2022-08-09T05:24:43.502Z,56.93
2022-08-09T05:27:44.373Z,59.04
2022-08-09T05:30:34.726Z,61.76
2022-08-09T05:33:26.546Z,61.83
2022-08-09T05:36:21.247Z,58.49
2022-08-09T05:39:28.452Z,56.36
2022-08-09T05:42:21.908Z,60.14
2022-08-09T05:45:16.291Z,61.50
2022-08-09T05:48:05.243Z,62.20
2022-08-09T05:51:16.623Z,60.11
2022-08-09T05:54:05.542Z,55.36
2022-08-09T05:56:54.821Z,55.22
2022-08-09T05:59:43.439Z,56.94
2022-08-09T06:02:33.269Z,55.79
2022-08-09T06:05:31.351Z,51.45
2022-08-09T06:08:31.242Z,48.68
2022-08-09T06:11:18.818Z,46.61
2022-08-09T06:14:12.715Z,44.12
2022-08-09T06:17:00.613Z,42.32
2022-08-09T06:19:56.981Z,40.77
2022-08-09T06:22:45.665Z,41.63
2022-08-09T06:25:34.594Z,41.18
2022-08-09T06:28:27.413Z,38.86
2022-08-09T06:31:30.765Z,37.93
2022-08-09T06:34:20.277Z,36.54
2022-08-09T06:37:11.094Z,34.77
2022-08-09T06:40:01.300Z,32.99
2022-08-09T06:42:58.706Z,30.73
2022-08-09T06:46:06.450Z,30.61
2022-08-09T06:48:59.687Z,30.41
2022-08-09T06:51:48.573Z,29.48
2022-08-09T06:54:37.001Z,28.55
2022-08-09T06:58:02.231Z,27.34
2022-08-09T07:00:49.542Z,26.20
2022-08-09T07:03:52.605Z,25.78
2022-08-09T07:06:42.211Z,24.68
2022-08-09T07:09:54.165Z,23.95
2022-08-09T07:12:41.311Z,23.31
2022-08-09T07:16:36.260Z,22.74
2022-08-09T07:18:38.642Z,24.41
2022-08-09T07:21:27.013Z,25.83
2022-08-09T07:24:18.991Z,26.43
2022-08-09T07:27:27.395Z,26.28
2022-08-09T07:30:21.725Z,27.06
2022-08-09T07:33:16.548Z,26.12
2022-08-09T07:36:05.270Z,25.24
2022-08-09T07:39:00.785Z,25.81
2022-08-09T07:41:50.391Z,27.02
2022-08-09T07:44:50.946Z,28.35
2022-08-09T07:47:49.662Z,29.69
2022-08-09T07:50:52.848Z,31.24
2022-08-09T07:54:06.976Z,32.17
2022-08-09T07:56:50.121Z,33.74
2022-08-09T07:59:45.790Z,33.52
2022-08-09T08:02:42.829Z,32.06
2022-08-09T08:05:39.094Z,31.14
2022-08-09T08:09:01.830Z,31.68
2022-08-09T08:12:10.953Z,31.35
2022-08-09T08:14:56.141Z,31.09
2022-08-09T08:17:57.993Z,31.18
2022-08-09T08:20:46.906Z,31.04
2022-08-09T08:23:35.513Z,30.89
2022-08-09T08:26:26.533Z,30.56
2022-08-09T08:29:39.595Z,31.37
2022-08-09T08:32:33.631Z,31.58
2022-08-09T08:35:22.909Z,31.44
2022-08-09T08:38:11.616Z,28.99
2022-08-09T08:41:06.246Z,28.02
2022-08-09T08:43:55.703Z,27.39
2022-08-09T08:47:02.988Z,27.36
2022-08-09T08:49:56.514Z,27.37
2022-08-09T08:52:57.683Z,27.58
2022-08-09T08:55:48.538Z,28.44
2022-08-09T08:58:37.643Z,29.60
2022-08-09T09:01:35.665Z,30.63
2022-08-09T09:04:47.535Z,32.21
2022-08-09T09:07:44.970Z,32.99
2022-08-09T09:10:34.627Z,34.49
2022-08-09T09:13:24.845Z,34.89
2022-08-09T09:16:35.105Z,34.03
2022-08-09T09:19:40.324Z,32.68
2022-08-09T09:22:29.636Z,30.87
2022-08-09T09:26:04.994Z,28.59
2022-08-09T09:29:03.440Z,27.32
2022-08-09T09:32:06.892Z,26.21
2022-08-09T09:35:09.899Z,25.49
2022-08-09T09:37:59.226Z,24.65
2022-08-09T09:40:50.577Z,24.29
2022-08-09T09:43:41.261Z,23.92
2022-08-09T09:46:42.907Z,23.96
2022-08-09T09:50:14.613Z,24.07
2022-08-09T09:52:56.144Z,23.95
2022-08-09T09:56:05.584Z,23.37
2022-08-09T09:58:53.574Z,23.67
2022-08-09T10:01:47.310Z,23.74
2022-08-09T10:04:35.943Z,23.15
2022-08-09T10:07:30.132Z,23.21
2022-08-09T10:10:31.629Z,23.20
2022-08-09T10:13:42.910Z,23.29
2022-08-09T10:16:57.723Z,23.37
2022-08-09T10:19:39.880Z,23.22
2022-08-09T10:22:37.253Z,23.30
2022-08-09T10:25:34.756Z,23.19
2022-08-09T10:28:38.259Z,23.14
2022-08-09T10:34:35.988Z,23.30
2022-08-09T10:37:25.559Z,23.70
2022-08-09T10:40:34.667Z,24.10
2022-08-09T10:43:24.170Z,24.21
2022-08-09T10:46:52.351Z,24.35
2022-08-09T10:49:51.390Z,24.62
2022-08-09T10:53:04.408Z,24.99
2022-08-09T10:56:30.868Z,25.29
2022-08-09T10:59:31.329Z,26.41
2022-08-09T11:03:14.173Z,27.86
2022-08-09T11:06:19.369Z,28.71
2022-08-09T11:09:15.884Z,28.56
2022-08-09T11:12:29.787Z,28.83
2022-08-09T11:15:33.974Z,28.10
2022-08-09T11:18:44.999Z,26.85
2022-08-09T11:21:57.055Z,26.92
2022-08-09T11:25:14.570Z,26.40
2022-08-09T11:28:34.669Z,26.22
2022-08-09T11:31:39.658Z,26.29
2022-08-09T11:34:52.386Z,26.25
2022-08-09T11:37:43.284Z,26.20
2022-08-09T11:40:38.150Z,26.52
2022-08-09T11:43:27.032Z,27.14
2022-08-09T11:46:33.370Z,27.39
2022-08-09T11:50:53.143Z,27.84
2022-08-09T11:53:21.434Z,28.54
2022-08-09T11:56:20.994Z,29.02
2022-08-09T11:59:30.539Z,29.39
2022-08-09T12:02:37.127Z,29.71
2022-08-09T12:05:39.572Z,30.42
2022-08-09T12:08:30.486Z,31.09
2022-08-09T12:11:23.539Z,32.08
2022-08-09T12:14:18.010Z,33.01
2022-08-09T12:17:34.676Z,33.58
2022-08-09T12:20:27.595Z,33.99
2022-08-09T12:23:15.854Z,34.97
2022-08-09T12:26:19.712Z,35.97
2022-08-09T12:29:33.090Z,36.54
2022-08-09T12:32:27.383Z,36.77
2022-08-09T12:35:19.359Z,37.58
2022-08-09T12:38:37.999Z,37.99
2022-08-09T12:41:38.913Z,38.15
2022-08-09T12:44:28.729Z,38.48
2022-08-09T12:47:25.719Z,38.83
2022-08-09T12:50:24.871Z,39.19
2022-08-09T12:53:44.802Z,39.41
2022-08-09T12:56:44.147Z,39.91
2022-08-09T12:59:40.099Z,39.91
2022-08-09T13:02:56.545Z,40.59
2022-08-09T13:05:51.677Z,40.93
2022-08-09T13:09:14.014Z,41.13
2022-08-09T13:12:05.766Z,41.38
2022-08-09T13:15:07.918Z,41.56
2022-08-09T13:18:09.653Z,41.71
2022-08-09T13:22:37.482Z,41.82
2022-08-09T13:24:48.356Z,42.12
2022-08-09T13:27:48.709Z,42.37
2022-08-09T13:32:18.119Z,42.82
2022-08-09T13:34:10.318Z,43.40
2022-08-09T13:37:06.239Z,44.10
2022-08-09T13:41:56.662Z,44.04
2022-08-09T13:43:09.546Z,44.04
2022-08-09T13:46:43.689Z,44.19
2022-08-09T13:49:06.051Z,44.46
2022-08-09T13:52:09.265Z,44.73
2022-08-09T13:54:59.974Z,44.32
2022-08-09T13:57:56.091Z,44.47
2022-08-09T14:00:52.970Z,44.36
2022-08-09T14:04:03.923Z,44.67
2022-08-09T14:07:03.552Z,44.94
2022-08-09T14:09:53.351Z,45.16
2022-08-09T14:12:43.446Z,45.27
2022-08-09T14:16:10.171Z,45.46
2022-08-09T14:18:45.298Z,45.65
2022-08-09T14:21:37.122Z,46.05
2022-08-09T14:24:32.015Z,46.62
2022-08-09T14:27:20.902Z,46.67
2022-08-09T14:30:37.205Z,46.69
2022-08-09T14:33:21.075Z,46.73
2022-08-09T14:36:20.329Z,46.85
2022-08-09T14:39:12.341Z,47.01
2022-08-09T14:42:00.207Z,47.48
2022-08-09T14:45:00.276Z,47.70
2022-08-09T14:47:57.067Z,47.94
2022-08-09T14:50:47.897Z,48.19
2022-08-09T14:53:39.892Z,48.33
2022-08-09T14:56:33.747Z,48.40
2022-08-09T14:59:22.004Z,48.81
2022-08-09T15:02:09.983Z,49.05
2022-08-09T15:05:01.168Z,48.95
2022-08-09T15:07:56.661Z,48.97
2022-08-09T15:11:00.313Z,49.02
2022-08-09T15:14:01.680Z,49.41
2022-08-09T15:16:52.802Z,49.27
2022-08-09T15:19:59.901Z,49.52
2022-08-09T15:22:50.091Z,49.56
2022-08-09T15:25:51.150Z,49.63
2022-08-09T15:28:41.984Z,49.92
2022-08-09T15:31:41.771Z,50.02
2022-08-09T15:34:34.524Z,50.61
2022-08-09T15:37:36.981Z,50.62
2022-08-09T15:40:32.238Z,50.77
2022-08-09T15:43:36.770Z,50.95
2022-08-09T15:46:32.884Z,51.15
2022-08-09T15:49:24.023Z,51.08
2022-08-09T15:52:13.847Z,51.41
2022-08-09T15:55:06.378Z,51.43
2022-08-09T15:57:54.586Z,51.29
2022-08-09T16:00:42.577Z,51.45
2022-08-09T16:03:38.548Z,51.44
2022-08-09T16:06:37.388Z,51.59
2022-08-09T16:09:32.544Z,51.55
2022-08-09T16:12:35.144Z,51.73
2022-08-09T16:16:12.274Z,52.12
2022-08-09T16:18:34.300Z,52.36
2022-08-09T16:21:25.711Z,52.60
2022-08-09T16:24:30.215Z,52.86
2022-08-09T16:27:22.675Z,53.20
2022-08-09T16:30:15.228Z,53.42
2022-08-09T16:33:15.715Z,53.65
2022-08-09T16:36:11.762Z,53.97
2022-08-09T16:39:05.595Z,54.19
2022-08-09T16:42:04.134Z,54.51
2022-08-09T16:44:52.724Z,54.89
2022-08-09T16:48:42.959Z,55.20
2022-08-09T16:50:58.677Z,55.55
2022-08-09T16:54:24.908Z,55.96
2022-08-09T16:56:56.532Z,56.33
2022-08-09T16:59:50.335Z,56.46
2022-08-09T17:02:47.211Z,56.47
2022-08-09T17:06:08.775Z,56.64
2022-08-09T17:09:03.009Z,56.78
2022-08-09T17:11:53.344Z,57.00
2022-08-09T17:14:46.403Z,57.03
2022-08-09T17:17:50.736Z,57.26
2022-08-09T17:20:46.663Z,57.49
2022-08-09T17:24:20.890Z,57.70
2022-08-09T17:26:53.514Z,57.73
2022-08-09T17:29:45.573Z,58.00
2022-08-09T17:32:37.870Z,58.16
2022-08-09T17:35:26.399Z,58.47
2022-08-09T17:38:33.967Z,58.67
2022-08-09T17:41:38.751Z,58.97
2022-08-09T17:44:42.350Z,59.34
2022-08-09T17:47:49.913Z,59.97
2022-08-09T17:50:55.794Z,60.54
2022-08-09T17:53:52.079Z,60.62
2022-08-09T17:56:42.545Z,60.75
2022-08-09T17:59:38.146Z,60.87
2022-08-09T18:02:33.104Z,61.14
2022-08-09T18:05:22.426Z,61.46
2022-08-09T18:08:18.167Z,61.62
2022-08-09T18:11:10.256Z,62.27
2022-08-09T18:14:13.364Z,60.48
2022-08-09T18:17:03.547Z,57.15
2022-08-09T18:21:00.195Z,57.80
2022-08-09T18:23:05.274Z,59.23
2022-08-09T18:25:57.759Z,60.42
2022-08-09T18:30:42.421Z,60.90
2022-08-09T18:31:56.582Z,61.50
2022-08-09T18:34:48.517Z,61.27
2022-08-09T18:37:47.869Z,61.05
2022-08-09T18:40:46.392Z,58.82
2022-08-09T18:43:34.994Z,59.61
2022-08-09T18:46:47.765Z,60.71
2022-08-09T18:49:46.439Z,60.78
2022-08-09T18:52:35.737Z,63.85
2022-08-09T18:55:45.651Z,64.15
2022-08-09T18:58:34.640Z,63.77
2022-08-09T19:01:27.116Z,59.91
2022-08-09T19:04:15.166Z,58.17
2022-08-09T19:07:05.356Z,58.14
2022-08-09T19:10:14.639Z,59.15
2022-08-09T19:13:20.665Z,60.10
2022-08-09T19:16:20.844Z,61.33
2022-08-09T19:19:25.129Z,63.19
2022-08-09T19:22:17.566Z,65.71
2022-08-09T19:25:42.713Z,65.22
2022-08-09T19:28:16.160Z,63.94
2022-08-09T19:31:04.117Z,60.34
2022-08-09T19:33:57.031Z,58.18
2022-08-09T19:36:46.521Z,58.67
2022-08-09T19:40:02.417Z,60.15
2022-08-09T19:42:44.338Z,61.75
2022-08-09T19:45:40.240Z,64.59
2022-08-09T19:49:02.581Z,64.04
2022-08-09T19:51:40.309Z,63.10
2022-08-09T19:54:36.914Z,60.06
2022-08-09T19:57:25.797Z,57.86
2022-08-09T20:00:15.754Z,59.54
2022-08-09T20:04:17.413Z,61.00
2022-08-09T20:06:23.641Z,63.20
2022-08-09T20:09:44.510Z,65.83
2022-08-09T20:12:29.854Z,64.21
2022-08-09T20:16:35.864Z,63.19
2022-08-09T20:18:33.912Z,59.89
2022-08-09T20:21:40.785Z,58.69
2022-08-09T20:24:34.441Z,60.09
2022-08-09T20:27:29.348Z,61.70
2022-08-09T20:30:21.825Z,64.15
2022-08-09T20:33:15.630Z,65.66
2022-08-09T20:36:05.383Z,62.25
2022-08-09T20:39:28.805Z,60.88
2022-08-09T20:42:07.629Z,62.45
2022-08-09T20:45:56.529Z,60.90
2022-08-09T20:48:11.072Z,58.42
2022-08-09T20:51:01.006Z,58.41
2022-08-09T20:53:49.672Z,59.54
2022-08-09T20:56:37.769Z,60.96
2022-08-09T21:00:20.932Z,65.48
2022-08-09T21:02:38.803Z,65.24
2022-08-09T21:05:51.830Z,65.75
2022-08-09T21:08:37.958Z,64.63
2022-08-09T21:14:39.761Z,62.88
2022-08-09T21:18:29.840Z,62.24
2022-08-09T21:20:38.636Z,61.38
2022-08-09T21:23:47.769Z,58.13
2022-08-09T21:26:34.817Z,57.65
2022-08-09T21:29:23.498Z,60.01
2022-08-09T21:32:18.621Z,64.48
2022-08-09T21:35:08.013Z,63.95
2022-08-09T21:37:58.977Z,63.35
2022-08-09T21:40:50.438Z,61.99
2022-08-09T21:43:56.503Z,60.95
2022-08-09T21:46:47.819Z,60.05
2022-08-09T21:49:42.620Z,62.74
2022-08-09T21:52:33.885Z,65.30
2022-08-09T21:55:29.737Z,65.81
2022-08-09T21:58:29.124Z,64.47
2022-08-09T22:01:26.146Z,61.50
2022-08-09T22:04:55.281Z,60.21
2022-08-09T22:07:52.215Z,60.55
2022-08-09T22:11:50.098Z,63.48
2022-08-09T22:13:55.842Z,67.19
2022-08-09T22:16:46.948Z,64.71
2022-08-09T22:19:58.104Z,64.56
2022-08-09T22:22:45.454Z,64.04
2022-08-09T22:26:06.308Z,62.65
2022-08-09T22:28:55.805Z,62.61
2022-08-09T22:31:56.231Z,62.53
2022-08-09T22:34:59.078Z,62.32
2022-08-09T22:38:07.216Z,62.29
2022-08-09T22:41:03.986Z,61.51
2022-08-09T22:44:02.336Z,61.82
2022-08-09T22:48:15.374Z,61.00
2022-08-09T22:50:08.857Z,58.37
2022-08-09T22:52:58.939Z,59.31
2022-08-09T22:56:30.893Z,61.09
2022-08-09T22:58:54.724Z,66.11
2022-08-09T23:01:45.685Z,68.09
2022-08-09T23:04:33.779Z,67.75
2022-08-09T23:08:27.692Z,65.57
2022-08-09T23:10:53.584Z,65.04
2022-08-09T23:13:53.703Z,64.19
2022-08-09T23:16:42.054Z,63.99
2022-08-09T23:19:29.890Z,63.65
2022-08-09T23:22:38.104Z,63.35
2022-08-09T23:25:25.942Z,63.36
2022-08-09T23:28:15.429Z,62.86
2022-08-09T23:31:04.424Z,62.29
2022-08-09T23:33:52.419Z,62.50
2022-08-09T23:36:40.356Z,62.21
2022-08-09T23:39:28.261Z,62.12
2022-08-09T23:42:16.890Z,60.46
2022-08-09T23:45:05.914Z,60.70
2022-08-09T23:47:57.027Z,63.21
2022-08-09T23:50:45.179Z,66.65
2022-08-09T23:53:35.256Z,66.15
2022-08-09T23:56:52.809Z,64.59
2022-08-09T23:59:52.412Z,64.51
